createdAt,value
2023-05-12T00:00:02.551Z,96.472168
2023-05-12T00:01:11.266Z,96.325684
2023-05-12T00:02:20.961Z,96.325684
2023-05-12T00:03:30.738Z,96.429443
2023-05-12T00:04:40.561Z,96.325684
2023-05-12T00:05:49.082Z,96.270752
2023-05-12T00:06:58.849Z,96.472168
2023-05-12T00:08:07.550Z,96.722412
2023-05-12T00:09:16.221Z,97.027588
2023-05-12T00:10:25.882Z,97.08252
2023-05-12T00:11:34.616Z,96.984863
2023-05-12T00:12:44.306Z,96.881104
2023-05-12T00:13:53.993Z,97.08252
2023-05-12T00:15:02.670Z,97.08252
2023-05-12T00:16:12.346Z,96.984863
2023-05-12T00:17:21.000Z,96.984863
2023-05-12T00:18:30.701Z,96.936035
2023-05-12T00:19:39.334Z,96.734619
2023-05-12T00:20:49.084Z,96.838379
2023-05-12T00:21:58.746Z,96.679688
2023-05-12T00:23:07.393Z,96.679688
2023-05-12T00:24:15.085Z,96.923828
2023-05-12T00:25:24.779Z,97.08252
2023-05-12T00:26:34.588Z,97.186279
2023-05-12T00:27:44.252Z,97.08252
2023-05-12T00:28:53.982Z,96.984863
2023-05-12T00:30:02.676Z,96.777344
2023-05-12T00:31:12.399Z,96.881104
2023-05-12T00:32:21.018Z,96.575928
2023-05-12T00:33:28.670Z,96.472168
2023-05-12T00:34:38.364Z,96.679688
2023-05-12T00:35:48.083Z,96.575928
2023-05-12T00:36:56.754Z,96.679688
2023-05-12T00:38:05.393Z,96.472168
2023-05-12T00:39:14.083Z,96.679688
2023-05-12T00:40:23.752Z,96.270752
2023-05-12T00:41:33.419Z,96.472168
2023-05-12T00:42:41.105Z,96.679688
2023-05-12T00:43:50.863Z,96.368408
2023-05-12T00:45:00.521Z,96.368408
2023-05-12T00:46:09.289Z,96.472168
2023-05-12T00:47:18.988Z,96.472168
2023-05-12T00:48:27.698Z,96.472168
2023-05-12T00:49:37.351Z,96.679688
2023-05-12T00:50:47.031Z,96.472168
2023-05-12T00:51:55.682Z,96.777344
2023-05-12T00:53:05.383Z,96.618652
2023-05-12T00:54:14.089Z,96.923828
2023-05-12T00:55:22.755Z,96.923828
2023-05-12T00:56:31.411Z,96.777344
2023-05-12T00:57:40.077Z,96.679688
2023-05-12T00:58:49.816Z,96.679688
2023-05-12T00:59:57.515Z,96.575928
2023-05-12T01:01:06.225Z,96.368408
2023-05-12T01:02:15.904Z,96.270752
2023-05-12T01:03:25.695Z,96.618652
2023-05-12T01:04:34.252Z,96.923828
2023-05-12T01:05:41.919Z,96.984863
2023-05-12T01:06:50.691Z,96.679688
2023-05-12T01:08:00.375Z,96.575928
2023-05-12T01:09:09.041Z,96.575928
2023-05-12T01:10:19.133Z,96.472168
2023-05-12T01:11:28.385Z,96.221924
2023-05-12T01:12:37.109Z,96.221924
2023-05-12T01:13:45.867Z,95.812988
2023-05-12T01:14:55.591Z,95.812988
2023-05-12T01:16:04.231Z,95.916748
2023-05-12T01:17:13.974Z,96.020508
2023-05-12T01:18:22.668Z,95.916748
2023-05-12T01:19:32.272Z,96.063232
2023-05-12T01:20:41.940Z,96.063232
2023-05-12T01:21:50.641Z,96.063232
2023-05-12T01:23:00.317Z,96.063232
2023-05-12T01:24:08.986Z,96.166992
2023-05-12T01:25:17.728Z,96.270752
2023-05-12T01:26:26.426Z,96.325684
2023-05-12T01:27:35.086Z,96.221924
2023-05-12T01:28:44.750Z,96.221924
2023-05-12T01:29:54.408Z,96.221924
2023-05-12T01:31:03.127Z,96.221924
2023-05-12T01:32:12.808Z,96.124268
2023-05-12T01:33:21.459Z,96.124268
2023-05-12T01:34:31.213Z,96.020508
2023-05-12T01:35:39.915Z,95.916748
2023-05-12T01:36:49.579Z,95.812988
2023-05-12T01:37:59.260Z,95.715332
2023-05-12T01:39:06.895Z,95.812988
2023-05-12T01:40:15.645Z,95.812988
2023-05-12T01:41:25.338Z,95.715332
2023-05-12T01:42:34.004Z,95.715332
2023-05-12T01:43:42.652Z,95.715332
2023-05-12T01:44:51.400Z,95.812988
2023-05-12T01:46:00.121Z,96.020508
2023-05-12T01:47:09.820Z,95.812988
2023-05-12T01:48:17.422Z,95.715332
2023-05-12T01:49:26.130Z,95.916748
2023-05-12T01:50:35.828Z,95.507812
2023-05-12T01:51:44.572Z,95.916748
2023-05-12T01:52:53.234Z,95.556641
2023-05-12T01:54:02.913Z,95.959473
2023-05-12T01:55:12.588Z,95.758057
2023-05-12T01:56:22.272Z,95.654297
2023-05-12T01:57:30.952Z,95.654297
2023-05-12T01:58:39.719Z,96.063232
2023-05-12T01:59:49.387Z,95.959473
2023-05-12T02:00:59.062Z,95.959473
2023-05-12T02:02:08.836Z,95.959473
2023-05-12T02:03:17.481Z,95.654297
2023-05-12T02:04:26.137Z,95.452881
2023-05-12T02:05:35.828Z,95.349121
2023-05-12T02:06:44.548Z,95.452881
2023-05-12T02:07:53.234Z,95.452881
2023-05-12T02:09:02.925Z,95.349121
2023-05-12T02:10:11.667Z,95.245361
2023-05-12T02:11:21.312Z,95.349121
2023-05-12T02:12:29.975Z,95.349121
2023-05-12T02:13:39.736Z,95.452881
2023-05-12T02:14:49.410Z,95.391846
2023-05-12T02:15:57.105Z,95.19043
2023-05-12T02:17:05.760Z,95.19043
2023-05-12T02:18:15.524Z,94.98291
2023-05-12T02:19:24.184Z,95.031738
2023-05-12T02:20:31.874Z,94.726562
2023-05-12T02:21:41.552Z,94.927979
2023-05-12T02:22:50.253Z,94.665527
2023-05-12T02:24:00.050Z,94.561768
2023-05-12T02:25:09.620Z,94.665527
2023-05-12T02:26:18.304Z,95.178223
2023-05-12T02:27:28.006Z,95.379639
2023-05-12T02:28:37.740Z,95.483398
2023-05-12T02:29:46.490Z,95.379639
2023-05-12T02:30:56.154Z,95.074463
2023-05-12T02:32:06.206Z,94.873047
2023-05-12T02:33:15.805Z,94.873047
2023-05-12T02:34:23.526Z,95.587158
2023-05-12T02:35:31.190Z,96.099854
2023-05-12T02:36:40.945Z,96.30127
2023-05-12T02:37:50.682Z,96.30127
2023-05-12T02:38:59.373Z,96.508789
2023-05-12T02:40:08.103Z,96.508789
2023-05-12T02:41:16.817Z,96.606445
2023-05-12T02:42:26.523Z,96.710205
2023-05-12T02:43:35.246Z,96.66748
2023-05-12T02:44:44.919Z,96.563721
2023-05-12T02:45:54.684Z,96.459961
2023-05-12T02:47:03.304Z,96.459961
2023-05-12T02:48:12.980Z,96.209717
2023-05-12T02:49:22.649Z,96.112061
2023-05-12T02:50:32.312Z,96.112061
2023-05-12T02:51:41.222Z,96.112061
2023-05-12T02:52:48.927Z,96.112061
2023-05-12T02:53:56.587Z,96.209717
2023-05-12T02:55:06.265Z,96.154785
2023-05-12T02:56:14.963Z,96.356201
2023-05-12T02:57:23.655Z,96.563721
2023-05-12T02:58:33.351Z,96.563721
2023-05-12T02:59:43.025Z,96.563721
2023-05-12T03:01:00.050Z,96.563721
2023-05-12T03:02:03.435Z,96.563721
2023-05-12T03:03:12.211Z,96.459961
2023-05-12T03:04:21.818Z,96.66748
2023-05-12T03:05:31.542Z,96.66748
2023-05-12T03:06:40.177Z,96.765137
2023-05-12T03:07:49.859Z,97.015381
2023-05-12T03:08:58.966Z,97.076416
2023-05-12T03:10:08.861Z,96.868896
2023-05-12T03:11:18.591Z,96.972656
2023-05-12T03:12:28.264Z,96.765137
2023-05-12T03:13:37.957Z,96.66748
2023-05-12T03:14:46.683Z,96.66748
2023-05-12T03:15:55.458Z,96.868896
2023-05-12T03:17:05.223Z,96.765137
2023-05-12T03:18:13.848Z,96.66748
2023-05-12T03:19:23.576Z,96.66748
2023-05-12T03:20:31.253Z,96.66748
2023-05-12T03:21:39.927Z,96.710205
2023-05-12T03:22:49.657Z,96.765137
2023-05-12T03:23:58.401Z,96.606445
2023-05-12T03:25:08.196Z,96.66748
2023-05-12T03:26:16.956Z,96.66748
2023-05-12T03:27:26.690Z,96.66748
2023-05-12T03:28:36.364Z,96.606445
2023-05-12T03:29:45.092Z,96.960449
2023-05-12T03:30:54.778Z,97.119141
2023-05-12T03:32:03.481Z,97.161865
2023-05-12T03:33:11.165Z,97.473145
2023-05-12T03:34:20.904Z,97.473145
2023-05-12T03:35:29.598Z,97.473145
2023-05-12T03:36:39.239Z,97.424316
2023-05-12T03:37:48.917Z,97.32666
2023-05-12T03:38:58.636Z,97.2229
2023-05-12T03:40:08.298Z,97.265625
2023-05-12T03:41:16.950Z,97.265625
2023-05-12T03:42:25.665Z,97.369385
2023-05-12T03:43:35.403Z,97.473145
2023-05-12T03:44:44.085Z,97.570801
2023-05-12T03:45:52.797Z,97.369385
2023-05-12T03:47:01.739Z,97.473145
2023-05-12T03:48:11.292Z,97.369385
2023-05-12T03:49:20.939Z,97.369385
2023-05-12T03:50:29.629Z,97.161865
2023-05-12T03:51:38.289Z,97.369385
2023-05-12T03:52:48.046Z,97.265625
2023-05-12T03:53:56.723Z,97.369385
2023-05-12T03:55:06.384Z,97.369385
2023-05-12T03:56:15.068Z,97.570801
2023-05-12T03:57:24.821Z,97.674561
2023-05-12T03:58:34.483Z,97.77832
2023-05-12T03:59:44.266Z,97.570801
2023-05-12T04:00:52.957Z,97.674561
2023-05-12T04:02:02.850Z,97.570801
2023-05-12T04:03:12.498Z,97.369385
2023-05-12T04:04:21.224Z,97.473145
2023-05-12T04:05:30.128Z,97.424316
2023-05-12T04:06:40.018Z,97.32666
2023-05-12T04:07:49.880Z,97.119141
2023-05-12T04:08:57.689Z,97.119141
2023-05-12T04:10:07.550Z,96.972656
2023-05-12T04:11:17.538Z,96.765137
2023-05-12T04:12:27.438Z,96.710205
2023-05-12T04:13:37.263Z,96.917725
2023-05-12T04:14:46.000Z,97.015381
2023-05-12T04:15:55.721Z,96.66748
2023-05-12T04:17:05.473Z,96.356201
2023-05-12T04:18:15.155Z,96.154785
2023-05-12T04:19:23.885Z,96.459961
2023-05-12T04:20:33.587Z,96.258545
2023-05-12T04:21:43.286Z,96.258545
2023-05-12T04:22:51.999Z,96.313477
2023-05-12T04:24:00.656Z,96.112061
2023-05-12T04:25:10.366Z,96.008301
2023-05-12T04:26:19.063Z,96.008301
2023-05-12T04:27:27.744Z,96.112061
2023-05-12T04:28:37.932Z,96.112061
2023-05-12T04:29:47.601Z,96.112061
2023-05-12T04:30:57.390Z,95.904541
2023-05-12T04:32:06.160Z,95.800781
2023-05-12T04:33:15.728Z,95.703125
2023-05-12T04:34:25.372Z,95.800781
2023-05-12T04:35:35.092Z,95.800781
2023-05-12T04:36:42.809Z,95.654297
2023-05-12T04:37:50.571Z,95.654297
2023-05-12T04:39:00.241Z,95.147705
2023-05-12T04:40:09.944Z,95.599365
2023-05-12T04:41:19.681Z,95.703125
2023-05-12T04:42:27.339Z,95.703125
2023-05-12T04:44:47.672Z,95.904541
2023-05-12T04:45:57.572Z,96.008301
2023-05-12T04:47:03.966Z,96.112061
2023-05-12T04:48:13.670Z,95.947266
2023-05-12T04:49:22.321Z,96.112061
2023-05-12T04:50:32.098Z,96.209717
2023-05-12T04:51:41.756Z,96.008301
2023-05-12T04:52:50.407Z,96.112061
2023-05-12T04:54:00.136Z,96.112061
2023-05-12T04:55:07.819Z,96.112061
2023-05-12T04:56:15.468Z,96.313477
2023-05-12T04:57:26.213Z,96.112061
2023-05-12T04:58:34.898Z,96.459961
2023-05-12T04:59:44.549Z,96.618652
2023-05-12T05:00:53.192Z,96.765137
2023-05-12T05:02:01.960Z,96.66748
2023-05-12T05:03:11.770Z,96.722412
2023-05-12T05:04:20.300Z,96.618652
2023-05-12T05:05:29.923Z,96.923828
2023-05-12T05:06:39.626Z,96.679688
2023-05-12T05:07:49.406Z,96.575928
2023-05-12T05:08:58.118Z,96.368408
2023-05-12T05:10:06.770Z,96.472168
2023-05-12T05:11:16.544Z,96.166992
2023-05-12T05:12:27.211Z,95.959473
2023-05-12T05:13:35.913Z,96.063232
2023-05-12T05:14:44.605Z,96.063232
2023-05-12T05:15:54.300Z,96.063232
2023-05-12T05:17:03.947Z,95.959473
2023-05-12T05:18:12.712Z,96.020508
2023-05-12T05:19:30.121Z,95.507812
2023-05-12T05:20:33.043Z,95.916748
2023-05-12T05:21:43.713Z,96.020508
2023-05-12T05:22:53.533Z,96.020508
2023-05-12T05:24:03.189Z,96.020508
2023-05-12T05:25:13.838Z,95.465088
2023-05-12T05:26:22.569Z,95.666504
2023-05-12T05:27:33.270Z,95.568848
2023-05-12T05:28:42.953Z,95.52002
2023-05-12T05:29:52.620Z,95.52002
2023-05-12T05:31:02.342Z,95.465088
2023-05-12T05:32:11.988Z,95.056152
2023-05-12T05:33:21.683Z,95.306396
2023-05-12T05:34:30.440Z,95.452881
2023-05-12T05:35:38.085Z,96.020508
2023-05-12T05:36:48.118Z,96.179199
2023-05-12T05:37:58.015Z,95.263672
2023-05-12T05:39:07.885Z,95.465088
2023-05-12T05:40:16.574Z,95.159912
2023-05-12T05:41:25.498Z,95.465088
2023-05-12T05:42:35.337Z,95.568848
2023-05-12T05:43:44.098Z,95.361328
2023-05-12T05:44:51.801Z,95.263672
2023-05-12T05:46:01.572Z,94.952393
2023-05-12T05:47:11.229Z,95.013428
2023-05-12T05:48:20.914Z,95.117188
2023-05-12T05:49:30.601Z,94.866943
2023-05-12T05:50:39.359Z,94.763184
2023-05-12T05:51:48.992Z,94.866943
2023-05-12T05:52:58.694Z,94.824219
2023-05-12T05:54:08.360Z,95.184326
2023-05-12T05:55:18.103Z,94.628906
2023-05-12T05:56:26.707Z,94.32373
2023-05-12T05:57:36.365Z,93.97583
2023-05-12T05:58:45.020Z,93.774414
2023-05-12T05:59:53.733Z,93.670654
2023-05-12T06:01:03.389Z,93.218994
2023-05-12T06:02:13.076Z,91.534424
2023-05-12T06:03:21.761Z,92.102051
2023-05-12T06:04:31.451Z,92.102051
2023-05-12T06:05:40.159Z,91.900635
2023-05-12T06:06:49.920Z,91.271973
2023-05-12T06:07:59.456Z,91.564941
2023-05-12T06:09:08.132Z,92.5354
2023-05-12T06:10:17.842Z,93.145752
2023-05-12T06:11:27.455Z,92.5354
2023-05-12T06:12:35.112Z,92.578125
2023-05-12T06:13:44.863Z,92.681885
2023-05-12T06:14:54.534Z,92.272949
2023-05-12T06:16:03.192Z,92.175293
2023-05-12T06:17:11.828Z,92.071533
2023-05-12T06:18:20.525Z,91.870117
2023-05-12T06:19:30.145Z,91.870117
2023-05-12T06:20:38.787Z,92.175293
2023-05-12T06:21:47.438Z,92.376709
2023-05-12T06:22:57.213Z,92.437744
2023-05-12T06:24:06.865Z,92.333984
2023-05-12T06:25:16.516Z,92.5354
2023-05-12T06:26:25.182Z,93.005371
2023-05-12T06:27:33.847Z,92.956543
2023-05-12T06:28:42.490Z,92.596436
2023-05-12T06:29:52.175Z,91.577148
2023-05-12T06:31:00.825Z,91.314697
2023-05-12T06:32:10.655Z,91.522217
2023-05-12T06:33:20.165Z,92.028809
2023-05-12T06:34:29.866Z,92.333984
2023-05-12T06:35:38.561Z,92.29126
2023-05-12T06:36:48.251Z,92.29126
2023-05-12T06:37:58.947Z,92.089844
2023-05-12T06:39:07.560Z,91.619873
2023-05-12T06:40:16.214Z,91.564941
2023-05-12T06:41:25.870Z,91.967773
2023-05-12T06:42:35.567Z,92.5354
2023-05-12T06:43:44.232Z,92.480469
2023-05-12T06:44:52.874Z,92.987061
2023-05-12T06:46:02.598Z,92.840576
2023-05-12T06:47:12.324Z,92.901611
2023-05-12T06:48:20.992Z,92.437744
2023-05-12T06:49:28.631Z,91.925049
2023-05-12T06:50:38.280Z,91.314697
2023-05-12T06:51:47.996Z,91.522217
2023-05-12T06:52:56.638Z,91.577148
2023-05-12T06:54:06.330Z,91.680908
2023-05-12T06:55:14.972Z,90.924072
2023-05-12T06:56:24.682Z,88.62915
2023-05-12T06:57:34.361Z,88.934326
2023-05-12T06:58:44.025Z,89.807129
2023-05-12T06:59:53.704Z,90.216064
2023-05-12T07:01:03.416Z,90.576172
2023-05-12T07:02:13.054Z,88.952637
2023-05-12T07:03:21.729Z,89.562988
2023-05-12T07:04:30.341Z,88.647461
2023-05-12T07:05:40.043Z,89.257812
2023-05-12T07:06:48.710Z,89.825439
2023-05-12T07:07:57.348Z,90.332031
2023-05-12T07:09:07.032Z,89.013672
2023-05-12T07:10:16.813Z,89.276123
2023-05-12T07:11:25.348Z,88.665771
2023-05-12T07:12:34.060Z,88.360596
2023-05-12T07:13:42.743Z,88.15918
2023-05-12T07:14:52.461Z,87.341309
2023-05-12T07:15:59.140Z,88.256836
2023-05-12T07:17:05.778Z,87.042236
2023-05-12T07:18:15.421Z,87.182617
2023-05-12T07:19:24.109Z,87.585449
2023-05-12T07:20:33.821Z,88.05542
2023-05-12T07:21:42.528Z,86.572266
2023-05-12T07:22:51.156Z,87.585449
2023-05-12T07:23:59.858Z,88.604736
2023-05-12T07:25:09.554Z,87.548828
2023-05-12T07:26:19.295Z,86.938477
2023-05-12T07:27:27.832Z,88.05542
2023-05-12T07:28:37.527Z,88.05542
2023-05-12T07:29:47.152Z,88.970947
2023-05-12T07:30:56.849Z,88.824463
2023-05-12T07:32:05.538Z,88.928223
2023-05-12T07:33:13.363Z,88.580322
2023-05-12T07:34:22.887Z,86.651611
2023-05-12T07:35:32.570Z,85.943604
2023-05-12T07:36:42.215Z,86.248779
2023-05-12T07:37:50.900Z,86.14502
2023-05-12T07:39:00.613Z,86.755371
2023-05-12T07:40:09.247Z,85.235596
2023-05-12T07:41:18.890Z,86.309814
2023-05-12T07:42:27.578Z,85.943604
2023-05-12T07:43:37.239Z,85.638428
2023-05-12T07:44:46.890Z,86.553955
2023-05-12T07:45:55.574Z,83.911133
2023-05-12T07:47:04.249Z,85.028076
2023-05-12T07:48:13.994Z,85.943604
2023-05-12T07:49:22.619Z,85.070801
2023-05-12T07:50:31.256Z,85.375977
2023-05-12T07:51:40.912Z,85.375977
2023-05-12T07:52:50.568Z,85.473633
2023-05-12T07:54:00.225Z,85.577393
2023-05-12T07:55:08.869Z,85.534668
2023-05-12T07:56:18.536Z,84.869385
2023-05-12T07:57:28.252Z,85.437012
2023-05-12T07:58:36.908Z,83.752441
2023-05-12T07:59:45.578Z,84.259033
2023-05-12T08:00:55.237Z,85.168457
2023-05-12T08:02:04.936Z,86.047363
2023-05-12T08:03:14.600Z,86.004639
2023-05-12T08:04:23.266Z,86.676025
2023-05-12T08:05:31.881Z,85.357666
2023-05-12T08:06:41.571Z,84.136963
2023-05-12T08:07:50.222Z,83.325195
2023-05-12T08:09:00.862Z,81.542969
2023-05-12T08:10:09.532Z,82.049561
2023-05-12T08:11:18.205Z,82.818604
2023-05-12T08:12:27.877Z,81.768799
2023-05-12T08:13:36.548Z,80.957031
2023-05-12T08:14:45.241Z,81.121826
2023-05-12T08:15:54.922Z,82.13501
2023-05-12T08:17:03.688Z,82.196045
2023-05-12T08:18:13.319Z,82.159424
2023-05-12T08:19:21.934Z,80.438232
2023-05-12T08:20:31.669Z,78.619385
2023-05-12T08:21:41.287Z,78.314209
2023-05-12T08:22:49.932Z,80.908203
2023-05-12T08:23:59.626Z,81.072998
2023-05-12T08:25:11.717Z,79.01001
2023-05-12T08:26:18.898Z,77.89917
2023-05-12T08:27:28.543Z,78.265381
2023-05-12T08:28:37.218Z,77.862549
2023-05-12T08:29:45.889Z,77.661133
2023-05-12T08:30:55.787Z,74.334717
2023-05-12T08:32:06.206Z,75.415039
2023-05-12T08:33:13.873Z,77.642822
2023-05-12T08:34:23.547Z,77.746582
2023-05-12T08:35:33.203Z,79.125977
2023-05-12T08:36:41.861Z,78.314209
2023-05-12T08:37:51.494Z,78.881836
2023-05-12T08:39:01.172Z,77.56958
2023-05-12T08:40:10.832Z,77.264404
2023-05-12T08:41:19.470Z,78.479004
2023-05-12T08:42:28.739Z,78.948975
2023-05-12T08:43:38.391Z,77.838135
2023-05-12T08:44:47.049Z,78.204346
2023-05-12T08:45:56.715Z,78.00293
2023-05-12T08:47:06.562Z,77.496338
2023-05-12T08:48:16.201Z,78.204346
2023-05-12T08:49:25.708Z,74.938965
2023-05-12T08:50:35.375Z,75.98877
2023-05-12T08:51:46.638Z,78.009033
2023-05-12T08:52:54.684Z,77.67334
2023-05-12T08:54:03.334Z,77.429199
2023-05-12T08:55:13.020Z,77.331543
2023-05-12T08:57:32.303Z,77.355957
2023-05-12T08:58:42.962Z,76.751709
2023-05-12T08:59:50.580Z,74.633789
2023-05-12T09:00:59.277Z,74.932861
2023-05-12T09:02:08.891Z,75.67749
2023-05-12T09:03:18.889Z,75.445557
2023-05-12T09:04:28.273Z,74.737549
2023-05-12T09:05:38.853Z,75.20752
2023-05-12T09:06:47.552Z,75.20752
2023-05-12T09:07:58.181Z,73.828125
2023-05-12T09:09:07.852Z,75.683594
2023-05-12T09:10:26.310Z,75.073242
2023-05-12T09:11:28.157Z,75.073242
2023-05-12T09:12:36.829Z,74.810791
2023-05-12T09:13:45.469Z,75.518799
2023-05-12T09:14:55.112Z,76.934814
2023-05-12T09:16:04.805Z,77.264404
2023-05-12T09:17:14.427Z,76.623535
2023-05-12T09:18:23.276Z,76.080322
2023-05-12T09:19:32.876Z,76.690674
2023-05-12T09:20:41.629Z,76.080322
2023-05-12T09:21:51.298Z,75.640869
2023-05-12T09:23:00.966Z,75.439453
2023-05-12T09:24:10.637Z,76.416016
2023-05-12T09:25:19.590Z,76.580811
2023-05-12T09:26:27.979Z,75.366211
2023-05-12T09:27:36.623Z,74.090576
2023-05-12T09:28:46.311Z,74.261475
2023-05-12T09:31:02.677Z,76.147461
2023-05-12T09:32:11.410Z,74.835205
2023-05-12T09:33:21.005Z,75
2023-05-12T09:34:29.746Z,74.694824
2023-05-12T09:35:39.383Z,74.291992
2023-05-12T09:36:49.026Z,75.671387
2023-05-12T09:37:58.680Z,75.537109
2023-05-12T09:39:08.212Z,73.516846
2023-05-12T09:40:17.929Z,73.114014
2023-05-12T09:41:27.576Z,74.163818
2023-05-12T09:42:36.226Z,73.187256
2023-05-12T09:43:45.891Z,74.633789
2023-05-12T09:44:54.578Z,76.116943
2023-05-12T09:46:04.276Z,75.10376
2023-05-12T09:47:13.878Z,75.274658
2023-05-12T09:48:22.538Z,75.036621
2023-05-12T09:49:30.227Z,75.201416
2023-05-12T09:50:47.116Z,74.89624
2023-05-12T09:51:49.509Z,73.486328
2023-05-12T09:53:00.156Z,73.052979
2023-05-12T09:54:08.833Z,73.822021
2023-05-12T09:55:18.647Z,72.412109
2023-05-12T09:56:28.161Z,72.814941
2023-05-12T09:57:36.803Z,73.181152
2023-05-12T09:58:44.496Z,74.261475
2023-05-12T09:59:54.157Z,73.449707
2023-05-12T10:01:18.220Z,72.845459
2023-05-12T10:02:13.454Z,70.6604
2023-05-12T10:03:22.297Z,71.801758
2023-05-12T10:04:31.794Z,71.063232
2023-05-12T10:05:41.425Z,73.486328
2023-05-12T10:06:52.160Z,72.845459
2023-05-12T10:08:01.756Z,71.569824
2023-05-12T10:09:11.389Z,71.502686
2023-05-12T10:10:20.034Z,73.083496
2023-05-12T10:11:28.677Z,73.553467
2023-05-12T10:12:38.353Z,73.455811
2023-05-12T10:13:48.022Z,75.134277
2023-05-12T10:14:57.704Z,74.023438
2023-05-12T10:16:06.341Z,73.486328
2023-05-12T10:17:14.049Z,69.98291
2023-05-12T10:18:23.737Z,71.264648
2023-05-12T10:19:32.373Z,70.6604
2023-05-12T10:20:41.045Z,71.032715
2023-05-12T10:21:49.742Z,71.704102
2023-05-12T10:22:59.715Z,72.979736
2023-05-12T10:24:10.114Z,71.435547
2023-05-12T10:25:20.878Z,69.451904
2023-05-12T10:26:30.432Z,69.885254
2023-05-12T10:27:40.124Z,70.861816
2023-05-12T10:28:49.781Z,72.845459
2023-05-12T10:29:58.426Z,72.912598
2023-05-12T10:31:08.548Z,72.241211
2023-05-12T10:32:18.226Z,73.052979
2023-05-12T10:33:27.872Z,73.657227
2023-05-12T10:34:37.524Z,73.522949
2023-05-12T10:35:49.235Z,73.114014
2023-05-12T10:36:56.872Z,73.522949
2023-05-12T10:38:06.544Z,73.583984
2023-05-12T10:39:16.207Z,73.352051
2023-05-12T10:40:25.875Z,72.137451
2023-05-12T10:41:35.547Z,72.808838
2023-05-12T10:42:45.214Z,72.30835
2023-05-12T10:43:54.914Z,72.106934
2023-05-12T10:45:03.547Z,71.600342
2023-05-12T10:46:13.248Z,70.489502
2023-05-12T10:47:21.876Z,71.19751
2023-05-12T10:48:31.541Z,72.003174
2023-05-12T10:49:40.158Z,72.338867
2023-05-12T10:50:49.871Z,72.20459
2023-05-12T10:51:59.543Z,72.808838
2023-05-12T10:53:08.647Z,72.20459
2023-05-12T10:54:16.982Z,71.435547
2023-05-12T10:55:26.679Z,71.398926
2023-05-12T10:56:37.597Z,73.321533
2023-05-12T10:57:47.021Z,74.835205
2023-05-12T10:58:56.733Z,74.224854
2023-05-12T11:00:06.654Z,74.224854
2023-05-12T11:01:15.613Z,73.254395
2023-05-12T11:02:23.861Z,73.352051
2023-05-12T11:03:33.677Z,73.455811
2023-05-12T11:04:44.732Z,73.822021
2023-05-12T11:05:53.409Z,73.822021
2023-05-12T11:07:02.884Z,74.023438
2023-05-12T11:08:11.827Z,74.023438
2023-05-12T11:09:20.259Z,74.633789
2023-05-12T11:10:30.862Z,73.150635
2023-05-12T11:11:40.788Z,73.693848
2023-05-12T11:12:49.160Z,74.365234
2023-05-12T11:13:58.984Z,74.664307
2023-05-12T11:15:08.695Z,72.88208
2023-05-12T11:16:18.329Z,73.895264
2023-05-12T11:17:27.976Z,74.298096
2023-05-12T11:18:36.700Z,75.274658
2023-05-12T11:19:46.382Z,76.855469
2023-05-12T11:20:55.002Z,73.419189
2023-05-12T11:22:04.682Z,74.090576
2023-05-12T11:23:12.381Z,73.083496
2023-05-12T11:24:21.064Z,73.791504
2023-05-12T11:25:30.849Z,74.694824
2023-05-12T11:26:40.418Z,74.89624
2023-05-12T11:27:50.092Z,73.583984
2023-05-12T11:28:58.747Z,72.77832
2023-05-12T11:30:08.405Z,73.052979
2023-05-12T11:31:18.094Z,74.432373
2023-05-12T11:32:27.841Z,75
2023-05-12T11:33:37.445Z,73.754883
2023-05-12T11:34:47.106Z,73.986816
2023-05-12T11:35:56.760Z,73.480225
2023-05-12T11:37:06.475Z,72.442627
2023-05-12T11:38:16.331Z,72.338867
2023-05-12T11:39:25.951Z,72.741699
2023-05-12T11:40:35.746Z,70.623779
2023-05-12T11:41:45.282Z,72.20459
2023-05-12T11:42:56.047Z,69.616699
2023-05-12T11:44:05.662Z,70.220947
2023-05-12T11:45:15.328Z,68.914795
2023-05-12T11:46:25.015Z,69.317627
2023-05-12T11:47:34.673Z,69.720459
2023-05-12T11:48:43.296Z,69.146729
2023-05-12T11:49:52.948Z,71.166992
2023-05-12T11:51:01.632Z,70.727539
2023-05-12T11:52:10.349Z,69.317627
2023-05-12T11:53:20.013Z,68.981934
2023-05-12T11:54:28.663Z,69.317627
2023-05-12T11:55:38.363Z,69.213867
2023-05-12T11:56:48.094Z,70.495605
2023-05-12T11:57:57.733Z,69.085693
2023-05-12T11:59:07.394Z,69.488525
2023-05-12T12:00:16.059Z,69.854736
2023-05-12T12:01:25.778Z,69.049072
2023-05-12T12:02:35.449Z,68.243408
2023-05-12T12:03:45.147Z,67.840576
2023-05-12T12:04:54.813Z,67.102051
2023-05-12T12:06:04.498Z,67.333984
2023-05-12T12:07:13.136Z,67.803955
2023-05-12T12:08:22.790Z,67.907715
2023-05-12T12:09:32.436Z,68.713379
2023-05-12T12:10:40.130Z,70.928955
2023-05-12T12:11:49.865Z,70.019531
2023-05-12T12:12:59.466Z,72.137451
2023-05-12T12:14:09.132Z,71.466064
2023-05-12T12:15:17.877Z,72.77832
2023-05-12T12:16:26.545Z,72.674561
2023-05-12T12:17:36.225Z,73.382568
2023-05-12T12:18:44.860Z,73.278809
2023-05-12T12:19:53.550Z,74.188232
2023-05-12T12:21:02.185Z,73.822021
2023-05-12T12:22:11.818Z,73.516846
2023-05-12T12:23:21.467Z,73.217773
2023-05-12T12:24:31.190Z,74.121094
2023-05-12T12:25:39.863Z,73.31543
2023-05-12T12:26:49.540Z,73.31543
2023-05-12T12:27:59.257Z,73.114014
2023-05-12T12:29:07.892Z,72.808838
2023-05-12T12:30:17.634Z,73.516846
2023-05-12T12:31:26.356Z,74.761963
2023-05-12T12:32:34.968Z,74.32251
2023-05-12T12:33:44.658Z,73.077393
2023-05-12T12:34:54.341Z,72.674561
2023-05-12T12:36:04.266Z,72.338867
2023-05-12T12:37:12.022Z,72.77832
2023-05-12T12:38:20.708Z,72.576904
2023-05-12T12:39:30.377Z,72.875977
2023-05-12T12:40:39.039Z,73.248291
2023-05-12T12:41:47.718Z,73.144531
2023-05-12T12:42:56.410Z,72.338867
2023-05-12T12:44:06.113Z,71.032715
2023-05-12T12:45:16.209Z,71.099854
2023-05-12T12:46:25.388Z,71.063232
2023-05-12T12:47:33.105Z,71.838379
2023-05-12T12:48:42.809Z,71.502686
2023-05-12T12:49:51.447Z,70.861816
2023-05-12T12:51:01.116Z,71.563721
2023-05-12T12:52:09.775Z,71.765137
2023-05-12T12:53:18.447Z,70.458984
2023-05-12T12:54:28.142Z,71.966553
2023-05-12T12:55:35.814Z,70.159912
2023-05-12T12:56:44.486Z,70.959473
2023-05-12T12:57:54.163Z,70.056152
2023-05-12T12:59:02.797Z,70.257568
2023-05-12T13:00:12.667Z,70.76416
2023-05-12T13:01:22.261Z,70.562744
2023-05-12T13:02:31.968Z,69.250488
2023-05-12T13:03:41.565Z,69.75708
2023-05-12T13:04:49.199Z,69.891357
2023-05-12T13:05:57.879Z,70.391846
2023-05-12T13:07:07.560Z,70.391846
2023-05-12T13:08:17.207Z,71.466064
2023-05-12T13:09:26.889Z,70.831299
2023-05-12T13:10:35.669Z,71.228027
2023-05-12T13:11:45.342Z,70.159912
2023-05-12T13:12:55.009Z,72.070312
2023-05-12T13:14:03.661Z,70.458984
2023-05-12T13:15:13.304Z,71.868896